Aviation Digital Data Service (ADDS)

Output produced by METARs form (0822 UTC 21 October 2018)
found at http://aviationweather.gov/metar/data/
 
TAF COR KGLS 210557Z 2106/2206 01018G28KT P6SM SCT015 BKN050 
     FM210800 02019G29KT P6SM SCT050 BKN150 
     FM211800 03016KT P6SM BKN180 BKN250 
     FM220000 02013KT P6SM BKN140 BKN250